TEZ27M UCFM-UCFO
Flight info
| Callsign | TEZ27M |
|---|---|
| Flight time | 0h 35m |
| Altitude | 24000 |
| Route | GASTA1 GASTA M34 DA |
| Aircraft | MD83/M-SDFGIRWY/C |
Departure
| Time | 2026-04-14 14:54 |
|---|---|
| Airport | Manas International Airport (UCFM) |
Arrival
| Time | 2026-04-14 15:29 |
|---|---|
| Airport | Osh International Airport (UCFO) |
| Time | Latitude | Longitude | Altitude | Speed | Heading |
|---|---|---|---|---|---|
| 2026-04-14 14:10 | 43.05618 | 74.46812 | 2092 ft | 0 kts | 170° |
| 2026-04-14 14:46 | 43.05615 | 74.46812 | 2091 ft | 1 kts | 170° |
| 2026-04-14 14:47 | 43.05596 | 74.46815 | 2091 ft | 3 kts | 180° |
| 2026-04-14 14:47 | 43.05570 | 74.46795 | 2091 ft | 5 kts | 232° |
| 2026-04-14 14:47 | 43.05554 | 74.46738 | 2091 ft | 7 kts | 258° |
| 2026-04-14 14:47 | 43.05545 | 74.46657 | 2091 ft | 9 kts | 260° |
| 2026-04-14 14:48 | 43.05539 | 74.46564 | 2091 ft | 8 kts | 287° |
| 2026-04-14 14:48 | 43.05574 | 74.46523 | 2091 ft | 5 kts | 342° |
| 2026-04-14 14:48 | 43.05621 | 74.46510 | 2091 ft | 8 kts | 349° |
| 2026-04-14 14:48 | 43.05693 | 74.46493 | 2091 ft | 11 kts | 349° |
| 2026-04-14 14:49 | 43.05741 | 74.46442 | 2091 ft | 8 kts | 280° |
| 2026-04-14 14:49 | 43.05735 | 74.46354 | 2091 ft | 10 kts | 262° |
| 2026-04-14 14:49 | 43.05723 | 74.46252 | 2091 ft | 11 kts | 260° |
| 2026-04-14 14:49 | 43.05708 | 74.46137 | 2091 ft | 12 kts | 260° |
| 2026-04-14 14:50 | 43.05691 | 74.46009 | 2091 ft | 14 kts | 259° |
| 2026-04-14 14:50 | 43.05673 | 74.45867 | 2091 ft | 15 kts | 259° |
| 2026-04-14 14:50 | 43.05653 | 74.45713 | 2091 ft | 16 kts | 259° |
| 2026-04-14 14:50 | 43.05635 | 74.45571 | 2091 ft | 13 kts | 260° |
| 2026-04-14 14:51 | 43.05620 | 74.45457 | 2091 ft | 10 kts | 259° |
| 2026-04-14 14:51 | 43.05611 | 74.45364 | 2091 ft | 8 kts | 272° |
| 2026-04-14 14:51 | 43.05632 | 74.45297 | 2091 ft | 7 kts | 310° |
| 2026-04-14 14:51 | 43.05680 | 74.45258 | 2091 ft | 9 kts | 345° |
| 2026-04-14 14:52 | 43.05743 | 74.45242 | 2091 ft | 8 kts | 350° |
| 2026-04-14 14:52 | 43.05793 | 74.45246 | 2091 ft | 6 kts | 31° |
| 2026-04-14 14:52 | 43.05807 | 74.45285 | 2091 ft | 4 kts | 78° |
| 2026-04-14 14:52 | 43.05808 | 74.45290 | 2091 ft | 0 kts | 78° |
| 2026-04-14 14:53 | 43.05808 | 74.45293 | 2091 ft | 6 kts | 78° |
| 2026-04-14 14:53 | 43.05853 | 74.45641 | 2091 ft | 66 kts | 80° |
| 2026-04-14 14:53 | 43.05968 | 74.46516 | 2091 ft | 118 kts | 79° |
| 2026-04-14 14:53 | 43.06138 | 74.47824 | 2092 ft | 160 kts | 79° |
| 2026-04-14 14:54 | 43.06327 | 74.49406 | 2464 ft | 168 kts | 80° |
| 2026-04-14 14:54 | 43.06487 | 74.50946 | 3052 ft | 165 kts | 81° |
| 2026-04-14 14:54 | 43.06636 | 74.52522 | 3530 ft | 169 kts | 82° |
| 2026-04-14 14:54 | 43.06775 | 74.54103 | 4008 ft | 172 kts | 83° |
| 2026-04-14 14:55 | 43.06908 | 74.55706 | 4570 ft | 168 kts | 83° |
| 2026-04-14 14:55 | 43.07024 | 74.57276 | 5068 ft | 168 kts | 85° |
| 2026-04-14 14:55 | 43.07124 | 74.58925 | 5389 ft | 178 kts | 85° |
| 2026-04-14 14:55 | 43.07634 | 74.60571 | 5418 ft | 206 kts | 47° |
| 2026-04-14 14:56 | 43.10597 | 74.61465 | 5587 ft | 258 kts | 342° |
| 2026-04-14 14:56 | 43.12196 | 74.60086 | 5733 ft | 283 kts | 311° |
| 2026-04-14 14:56 | 43.13127 | 74.57759 | 6474 ft | 282 kts | 282° |
| 2026-04-14 14:57 | 43.13192 | 74.55125 | 7171 ft | 280 kts | 256° |
| 2026-04-14 14:57 | 43.12447 | 74.52676 | 7897 ft | 279 kts | 243° |
| 2026-04-14 14:57 | 43.11598 | 74.50302 | 8508 ft | 283 kts | 243° |
| 2026-04-14 14:57 | 43.10721 | 74.47869 | 9169 ft | 286 kts | 244° |
| 2026-04-14 14:58 | 43.09851 | 74.45456 | 9867 ft | 286 kts | 244° |
| 2026-04-14 14:58 | 43.08949 | 74.42954 | 10282 ft | 298 kts | 245° |
| 2026-04-14 14:58 | 43.07999 | 74.40312 | 10328 ft | 322 kts | 244° |
| 2026-04-14 14:58 | 43.06978 | 74.37480 | 10429 ft | 342 kts | 244° |
| 2026-04-14 14:59 | 43.05915 | 74.34531 | 10939 ft | 347 kts | 244° |
| 2026-04-14 14:59 | 43.04847 | 74.31575 | 11516 ft | 351 kts | 244° |
| 2026-04-14 14:59 | 43.03391 | 74.28895 | 12001 ft | 358 kts | 222° |
| 2026-04-14 14:59 | 43.01274 | 74.27107 | 12588 ft | 361 kts | 203° |
| 2026-04-14 15:00 | 42.98970 | 74.25732 | 13124 ft | 364 kts | 205° |
| 2026-04-14 15:00 | 42.96615 | 74.24303 | 13636 ft | 368 kts | 205° |
| 2026-04-14 15:00 | 42.94261 | 74.22855 | 14171 ft | 370 kts | 205° |
| 2026-04-14 15:00 | 42.91898 | 74.21388 | 14691 ft | 374 kts | 205° |
| 2026-04-14 15:01 | 42.89529 | 74.19907 | 15207 ft | 376 kts | 205° |
| 2026-04-14 15:01 | 42.87129 | 74.18399 | 15680 ft | 379 kts | 206° |
| 2026-04-14 15:01 | 42.84726 | 74.16885 | 16159 ft | 382 kts | 206° |
| 2026-04-14 15:01 | 42.82296 | 74.15347 | 16646 ft | 385 kts | 206° |
| 2026-04-14 15:02 | 42.79826 | 74.13781 | 17121 ft | 388 kts | 206° |
| 2026-04-14 15:02 | 42.77361 | 74.12217 | 17572 ft | 391 kts | 206° |
| 2026-04-14 15:02 | 42.74879 | 74.10639 | 18078 ft | 393 kts | 206° |
| 2026-04-14 15:02 | 42.72395 | 74.09057 | 18597 ft | 394 kts | 206° |
| 2026-04-14 15:03 | 42.69888 | 74.07459 | 19016 ft | 398 kts | 207° |
| 2026-04-14 15:03 | 42.67358 | 74.05847 | 19478 ft | 401 kts | 207° |
| 2026-04-14 15:03 | 42.64813 | 74.04221 | 19924 ft | 404 kts | 207° |
| 2026-04-14 15:03 | 42.62268 | 74.02599 | 20339 ft | 408 kts | 207° |
| 2026-04-14 15:04 | 42.59678 | 74.00943 | 20753 ft | 411 kts | 207° |
| 2026-04-14 15:04 | 42.57072 | 73.99278 | 21239 ft | 412 kts | 207° |
| 2026-04-14 15:04 | 42.54441 | 73.97598 | 21571 ft | 417 kts | 207° |
| 2026-04-14 15:04 | 42.51789 | 73.95903 | 22040 ft | 418 kts | 207° |
| 2026-04-14 15:05 | 42.49132 | 73.94205 | 22433 ft | 421 kts | 207° |
| 2026-04-14 15:05 | 42.46475 | 73.92506 | 22799 ft | 424 kts | 207° |
| 2026-04-14 15:05 | 42.43748 | 73.90764 | 23154 ft | 428 kts | 207° |
| 2026-04-14 15:05 | 42.41050 | 73.89039 | 23607 ft | 428 kts | 207° |
| 2026-04-14 15:06 | 42.38334 | 73.87302 | 23940 ft | 432 kts | 207° |
| 2026-04-14 15:06 | 42.35600 | 73.85556 | 24310 ft | 428 kts | 207° |
| 2026-04-14 15:06 | 42.32938 | 73.83853 | 24301 ft | 427 kts | 207° |
| 2026-04-14 15:06 | 42.30223 | 73.82114 | 24322 ft | 431 kts | 207° |
| 2026-04-14 15:07 | 42.27483 | 73.80360 | 24303 ft | 435 kts | 207° |
| 2026-04-14 15:07 | 42.24763 | 73.78638 | 24319 ft | 436 kts | 207° |
| 2026-04-14 15:07 | 42.21999 | 73.76904 | 24307 ft | 435 kts | 207° |
| 2026-04-14 15:07 | 42.19230 | 73.75171 | 24319 ft | 434 kts | 207° |
| 2026-04-14 15:08 | 42.16470 | 73.73446 | 24352 ft | 434 kts | 207° |
| 2026-04-14 15:08 | 42.13751 | 73.71750 | 24343 ft | 434 kts | 207° |
| 2026-04-14 15:08 | 42.10991 | 73.70029 | 24347 ft | 434 kts | 207° |
| 2026-04-14 15:08 | 42.08234 | 73.68310 | 24324 ft | 433 kts | 207° |
| 2026-04-14 15:09 | 42.05492 | 73.66605 | 24331 ft | 433 kts | 207° |
| 2026-04-14 15:09 | 42.02756 | 73.64902 | 24350 ft | 432 kts | 207° |
| 2026-04-14 15:09 | 42.00026 | 73.63203 | 24349 ft | 433 kts | 207° |
| 2026-04-14 15:09 | 41.97316 | 73.61517 | 24357 ft | 433 kts | 207° |
| 2026-04-14 15:10 | 41.94576 | 73.59811 | 24344 ft | 433 kts | 207° |
| 2026-04-14 15:10 | 41.91825 | 73.58099 | 24348 ft | 433 kts | 207° |
| 2026-04-14 15:10 | 41.89086 | 73.56394 | 24337 ft | 433 kts | 207° |
| 2026-04-14 15:10 | 41.86311 | 73.54668 | 24330 ft | 433 kts | 207° |
| 2026-04-14 15:11 | 41.83564 | 73.52957 | 24333 ft | 433 kts | 207° |
| 2026-04-14 15:11 | 41.80855 | 73.51272 | 24312 ft | 433 kts | 207° |
| 2026-04-14 15:11 | 41.78136 | 73.49580 | 24309 ft | 432 kts | 207° |
| 2026-04-14 15:11 | 41.75386 | 73.47868 | 24306 ft | 432 kts | 207° |
| 2026-04-14 15:12 | 41.72688 | 73.46189 | 24319 ft | 431 kts | 207° |
| 2026-04-14 15:12 | 41.69946 | 73.44483 | 24297 ft | 432 kts | 208° |
| 2026-04-14 15:12 | 41.67214 | 73.42780 | 24276 ft | 431 kts | 208° |
| 2026-04-14 15:12 | 41.64489 | 73.41084 | 24282 ft | 430 kts | 208° |
| 2026-04-14 15:13 | 41.61786 | 73.39400 | 24295 ft | 431 kts | 208° |
| 2026-04-14 15:13 | 41.59065 | 73.37704 | 24229 ft | 431 kts | 208° |
| 2026-04-14 15:13 | 41.56321 | 73.35995 | 23644 ft | 426 kts | 208° |
| 2026-04-14 15:13 | 41.53691 | 73.34358 | 23088 ft | 417 kts | 207° |
| 2026-04-14 15:14 | 41.51069 | 73.32722 | 22535 ft | 407 kts | 207° |
| 2026-04-14 15:14 | 41.48519 | 73.31155 | 22002 ft | 397 kts | 207° |
| 2026-04-14 15:14 | 41.46061 | 73.29648 | 21503 ft | 389 kts | 207° |
| 2026-04-14 15:14 | 41.43619 | 73.28153 | 21001 ft | 382 kts | 207° |
| 2026-04-14 15:15 | 41.41211 | 73.26679 | 20517 ft | 379 kts | 206° |
| 2026-04-14 15:15 | 41.38775 | 73.25191 | 20040 ft | 379 kts | 207° |
| 2026-04-14 15:15 | 41.36405 | 73.23745 | 19587 ft | 379 kts | 206° |
| 2026-04-14 15:15 | 41.34003 | 73.22278 | 19129 ft | 378 kts | 206° |
| 2026-04-14 15:16 | 41.31582 | 73.20803 | 18663 ft | 376 kts | 206° |
| 2026-04-14 15:16 | 41.29243 | 73.19379 | 18202 ft | 372 kts | 206° |
| 2026-04-14 15:16 | 41.26865 | 73.17931 | 17734 ft | 368 kts | 206° |
| 2026-04-14 15:16 | 41.24558 | 73.16526 | 17281 ft | 364 kts | 206° |
| 2026-04-14 15:17 | 41.22249 | 73.15119 | 16834 ft | 361 kts | 207° |
| 2026-04-14 15:17 | 41.19991 | 73.13744 | 16403 ft | 357 kts | 207° |
| 2026-04-14 15:17 | 41.17729 | 73.12366 | 15977 ft | 355 kts | 207° |
| 2026-04-14 15:17 | 41.15489 | 73.11002 | 15549 ft | 352 kts | 207° |
| 2026-04-14 15:18 | 41.13271 | 73.09652 | 15130 ft | 347 kts | 207° |
| 2026-04-14 15:18 | 41.11081 | 73.08318 | 14707 ft | 344 kts | 207° |
| 2026-04-14 15:18 | 41.08915 | 73.06998 | 14292 ft | 340 kts | 208° |
| 2026-04-14 15:18 | 41.06792 | 73.05705 | 13886 ft | 336 kts | 208° |
| 2026-04-14 15:19 | 41.04660 | 73.04407 | 13476 ft | 332 kts | 208° |
| 2026-04-14 15:19 | 41.02563 | 73.03127 | 13057 ft | 330 kts | 208° |
| 2026-04-14 15:19 | 41.00491 | 73.01862 | 12640 ft | 323 kts | 208° |
| 2026-04-14 15:19 | 40.98488 | 73.00639 | 12217 ft | 314 kts | 208° |
| 2026-04-14 15:20 | 40.96511 | 72.99435 | 11831 ft | 306 kts | 207° |
| 2026-04-14 15:20 | 40.94661 | 72.98120 | 11506 ft | 294 kts | 218° |
| 2026-04-14 15:20 | 40.93153 | 72.96409 | 11039 ft | 278 kts | 230° |
| 2026-04-14 15:20 | 40.92016 | 72.94436 | 10607 ft | 269 kts | 236° |
| 2026-04-14 15:21 | 40.90910 | 72.92445 | 10259 ft | 270 kts | 236° |
| 2026-04-14 15:21 | 40.89777 | 72.90411 | 9942 ft | 278 kts | 235° |
| 2026-04-14 15:21 | 40.88605 | 72.88318 | 9547 ft | 282 kts | 235° |
| 2026-04-14 15:21 | 40.87417 | 72.86208 | 9140 ft | 283 kts | 235° |
| 2026-04-14 15:22 | 40.86253 | 72.84145 | 8721 ft | 283 kts | 234° |
| 2026-04-14 15:22 | 40.85074 | 72.82063 | 8340 ft | 280 kts | 234° |
| 2026-04-14 15:22 | 40.83908 | 72.80008 | 7936 ft | 278 kts | 234° |
| 2026-04-14 15:22 | 40.82748 | 72.77971 | 7545 ft | 276 kts | 234° |
| 2026-04-14 15:23 | 40.81594 | 72.75944 | 7148 ft | 274 kts | 233° |
| 2026-04-14 15:23 | 40.80447 | 72.73934 | 6768 ft | 272 kts | 233° |
| 2026-04-14 15:23 | 40.79307 | 72.71938 | 6377 ft | 272 kts | 233° |
| 2026-04-14 15:23 | 40.78177 | 72.69961 | 5996 ft | 271 kts | 233° |
| 2026-04-14 15:24 | 40.77034 | 72.67964 | 5585 ft | 271 kts | 233° |
| 2026-04-14 15:24 | 40.75897 | 72.65977 | 5190 ft | 269 kts | 233° |
| 2026-04-14 15:24 | 40.74749 | 72.64050 | 4907 ft | 260 kts | 224° |
| 2026-04-14 15:24 | 40.73289 | 72.62959 | 4838 ft | 229 kts | 192° |
| 2026-04-14 15:25 | 40.71776 | 72.62946 | 4679 ft | 206 kts | 175° |
| 2026-04-14 15:25 | 40.70404 | 72.63129 | 4526 ft | 189 kts | 168° |
| 2026-04-14 15:25 | 40.69309 | 72.63865 | 4447 ft | 165 kts | 126° |
| 2026-04-14 15:25 | 40.68750 | 72.64995 | 4466 ft | 137 kts | 129° |
| 2026-04-14 15:26 | 40.68167 | 72.65999 | 4478 ft | 137 kts | 122° |
| 2026-04-14 15:26 | 40.67606 | 72.67074 | 4591 ft | 147 kts | 129° |
| 2026-04-14 15:26 | 40.66988 | 72.68180 | 4579 ft | 151 kts | 125° |
| 2026-04-14 15:26 | 40.66370 | 72.69322 | 4426 ft | 154 kts | 126° |
| 2026-04-14 15:27 | 40.65747 | 72.70457 | 4230 ft | 151 kts | 126° |
| 2026-04-14 15:27 | 40.65144 | 72.71589 | 4039 ft | 152 kts | 127° |
| 2026-04-14 15:27 | 40.64530 | 72.72728 | 3845 ft | 151 kts | 126° |
| 2026-04-14 15:27 | 40.63896 | 72.73845 | 3654 ft | 151 kts | 126° |
| 2026-04-14 15:28 | 40.63282 | 72.74982 | 3460 ft | 152 kts | 127° |
| 2026-04-14 15:28 | 40.62670 | 72.76104 | 3258 ft | 152 kts | 126° |
| 2026-04-14 15:28 | 40.62044 | 72.77231 | 3046 ft | 150 kts | 127° |
| 2026-04-14 15:28 | 40.61444 | 72.78325 | 2876 ft | 143 kts | 127° |
| 2026-04-14 15:29 | 40.60920 | 72.79281 | 2904 ft | 107 kts | 126° |
| 2026-04-14 15:29 | 40.60580 | 72.79902 | 2920 ft | 62 kts | 126° |
| 2026-04-14 15:29 | 40.60383 | 72.80263 | 2929 ft | 32 kts | 127° |
| 2026-04-14 15:29 | 40.60288 | 72.80449 | 2933 ft | 20 kts | 107° |
| 2026-04-14 15:30 | 40.60255 | 72.80562 | 2935 ft | 9 kts | 180° |
| 2026-04-14 15:30 | 40.60243 | 72.80524 | 2935 ft | 5 kts | 301° |
| 2026-04-14 15:30 | 40.60276 | 72.80462 | 2934 ft | 10 kts | 306° |
| 2026-04-14 15:30 | 40.60325 | 72.80370 | 2932 ft | 14 kts | 305° |
| 2026-04-14 15:31 | 40.60393 | 72.80248 | 2928 ft | 18 kts | 306° |
| 2026-04-14 15:31 | 40.60477 | 72.80093 | 2924 ft | 23 kts | 306° |
| 2026-04-14 15:31 | 40.60578 | 72.79908 | 2920 ft | 25 kts | 305° |
| 2026-04-14 15:31 | 40.60681 | 72.79718 | 2915 ft | 25 kts | 306° |
| 2026-04-14 15:32 | 40.60772 | 72.79553 | 2910 ft | 16 kts | 304° |
| 2026-04-14 15:32 | 40.60758 | 72.79475 | 2910 ft | 7 kts | 221° |
| 2026-04-14 15:32 | 40.60729 | 72.79445 | 2910 ft | 3 kts | 216° |
| 2026-04-14 15:32 | 40.60714 | 72.79430 | 2911 ft | 3 kts | 216° |
| 2026-04-14 15:33 | 40.60685 | 72.79385 | 2912 ft | 10 kts | 259° |
| 2026-04-14 15:33 | 40.60730 | 72.79273 | 2911 ft | 18 kts | 306° |
| 2026-04-14 15:33 | 40.60815 | 72.79117 | 2908 ft | 21 kts | 307° |
| 2026-04-14 15:33 | 40.60897 | 72.78966 | 2904 ft | 19 kts | 306° |
| 2026-04-14 15:34 | 40.60957 | 72.78858 | 2901 ft | 7 kts | 306° |
| 2026-04-14 15:34 | 40.60986 | 72.78801 | 2899 ft | 7 kts | 292° |
| 2026-04-14 15:34 | 40.60973 | 72.78750 | 2898 ft | 4 kts | 215° |
| 2026-04-14 15:34 | 40.60952 | 72.78729 | 2899 ft | 11 kts | 226° |
| 2026-04-14 15:35 | 40.60906 | 72.78660 | 2899 ft | 4 kts | 218° |
| 2026-04-14 15:35 | 40.60896 | 72.78650 | 2899 ft | 0 kts | 217° |